Time;durP1;ratioP1;P1;durP2;ratioP2;P2;SDS_P1;SDS_P2;PMS_P1;PMS_P2;Temp;Humidity;BMP_temperature;BMP_pressure;BME280_temperature;BME280_humidity;BME280_pressure;Samples;Min_cycle;Max_cycle;Signal;HPM_P1;HPM_P2
2020/12/23 00:01:21;;;;;;;88.10;39.40;;;;;;;3.60;76.90;94527.07;1747546;80;21209;-49
2020/12/23 00:03:49;;;;;;;41.35;21.70;;;;;;;3.67;76.78;94518.81;1766259;80;21134;-49
2020/12/23 00:06:17;;;;;;;31.82;20.60;;;;;;;3.74;76.55;94530.97;1768567;80;21068;-49
2020/12/23 00:08:45;;;;;;;55.70;32.60;;;;;;;3.78;76.31;94527.61;1765269;80;21123;-49
2020/12/23 00:11:17;;;;;;;51.53;32.60;;;;;;;3.82;76.26;94520.73;1746896;81;21140;-48
2020/12/23 00:13:45;;;;;;;44.18;24.47;;;;;;;3.92;76.00;94526.64;1760066;80;21378;-48
2020/12/23 00:16:14;;;;;;;37.83;22.27;;;;;;;4.03;75.63;94533.47;1764963;80;21075;-47
2020/12/23 00:18:42;;;;;;;42.90;25.40;;;;;;;4.03;75.46;94527.28;1754362;80;21183;-49
2020/12/23 00:21:10;;;;;;;65.62;37.15;;;;;;;4.02;75.39;94533.30;1759359;80;21864;-48
2020/12/23 00:23:39;;;;;;;75.00;39.73;;;;;;;4.04;75.30;94527.45;1757642;80;21082;-48
2020/12/23 00:26:09;;;;;;;91.85;49.75;;;;;;;4.02;75.16;94530.58;1745292;80;21215;-49
2020/12/23 00:28:37;;;;;;;89.92;47.98;;;;;;;3.99;75.04;94530.04;1756952;81;21623;-48
2020/12/23 00:31:06;;;;;;;90.97;49.75;;;;;;;3.98;75.15;94543.47;1763318;80;21175;-49
2020/12/23 00:33:34;;;;;;;108.63;58.87;;;;;;;3.98;75.15;94537.23;1761588;80;21568;-50
2020/12/23 00:36:04;;;;;;;91.78;49.53;;;;;;;3.95;75.29;94544.29;1750960;80;21087;-49
2020/12/23 00:38:33;;;;;;;50.15;27.85;;;;;;;3.97;75.36;94552.03;1751517;81;21212;-49
2020/12/23 00:41:01;;;;;;;72.12;37.35;;;;;;;4.00;75.34;94554.70;1755566;80;21163;-49
2020/12/23 00:43:29;;;;;;;95.65;49.35;;;;;;;4.08;75.07;94542.53;1760845;80;21130;-48
2020/12/23 00:45:58;;;;;;;59.00;31.35;;;;;;;4.07;74.83;94545.68;1756510;81;21097;-48
2020/12/23 00:48:26;;;;;;;41.92;25.55;;;;;;;4.08;74.76;94555.38;1759438;80;21067;-48
2020/12/23 00:50:55;;;;;;;20.55;14.25;;;;;;;4.14;74.59;94547.71;1755768;80;21235;-49
2020/12/23 00:53:23;;;;;;;14.55;9.70;;;;;;;4.23;73.77;94545.23;1750780;80;21131;-49
2020/12/23 00:55:52;;;;;;;12.73;8.13;;;;;;;4.30;73.43;94546.51;1761976;80;21178;-49
2020/12/23 00:58:20;;;;;;;8.58;6.67;;;;;;;4.39;72.92;94546.75;1754826;80;21683;-48
2020/12/23 01:00:49;;;;;;;8.78;6.97;;;;;;;4.50;71.99;94544.64;1760382;80;21131;-49
2020/12/23 01:03:18;;;;;;;12.35;8.93;;;;;;;4.60;71.59;94553.22;1764266;80;21445;-50
2020/12/23 01:05:46;;;;;;;19.73;11.63;;;;;;;4.67;71.41;94555.84;1771026;80;21074;-48
2020/12/23 01:08:14;;;;;;;19.60;13.25;;;;;;;4.68;71.36;94543.77;1765382;80;21088;-49
2020/12/23 01:10:46;;;;;;;18.85;13.43;;;;;;;4.69;71.36;94545.30;1757429;80;21089;-48
2020/12/23 01:13:14;;;;;;;13.28;11.85;;;;;;;4.74;71.41;94553.00;1756828;80;21064;-48
2020/12/23 01:15:43;;;;;;;15.43;11.65;;;;;;;4.79;71.39;94559.33;1760376;80;21212;-49
2020/12/23 01:18:12;;;;;;;17.07;15.32;;;;;;;4.83;71.31;94569.57;1761385;80;21107;-49
2020/12/23 01:20:42;;;;;;;8.08;6.50;;;;;;;4.84;71.18;94573.08;1753112;80;21148;-49
2020/12/23 01:23:11;;;;;;;8.60;6.03;;;;;;;4.88;71.05;94566.97;1755906;80;21189;-49
2020/12/23 01:25:39;;;;;;;7.05;5.40;;;;;;;4.90;71.02;94564.02;1759950;80;21114;-48
2020/12/23 01:28:07;;;;;;;8.65;6.60;;;;;;;4.86;71.13;94568.77;1771644;80;21455;-48
2020/12/23 01:30:36;;;;;;;5.50;4.97;;;;;;;4.81;71.43;94569.83;1760731;80;21080;-48
2020/12/23 01:33:04;;;;;;;4.75;4.45;;;;;;;4.82;71.67;94572.73;1757598;80;21095;-51
2020/12/23 01:35:32;;;;;;;5.17;4.75;;;;;;;4.80;71.77;94566.31;1775270;80;21566;-49
2020/12/23 01:38:00;;;;;;;4.30;4.00;;;;;;;4.80;72.10;94571.02;1776925;80;21162;-48
2020/12/23 01:40:29;;;;;;;4.50;4.08;;;;;;;4.79;72.30;94562.66;1769509;80;21208;-50
2020/12/23 01:42:58;;;;;;;4.58;4.28;;;;;;;4.75;72.62;94562.71;1771521;80;21092;-49
2020/12/23 01:45:26;;;;;;;4.10;3.90;;;;;;;4.74;72.94;94561.17;1779505;80;21060;-48
2020/12/23 01:47:56;;;;;;;4.90;4.50;;;;;;;4.74;73.14;94555.72;1748582;80;21473;-49
2020/12/23 01:50:24;;;;;;;4.50;4.20;;;;;;;4.72;73.41;94556.73;1766609;80;21139;-49
2020/12/23 01:52:53;;;;;;;4.42;4.12;;;;;;;4.69;73.71;94558.92;1756278;80;21392;-49
2020/12/23 01:55:22;;;;;;;4.00;3.80;;;;;;;4.67;73.98;94554.48;1751521;80;21174;-49
2020/12/23 01:57:50;;;;;;;4.50;4.20;;;;;;;4.63;74.22;94551.03;1758070;80;21496;-49
2020/12/23 02:00:18;;;;;;;5.08;4.67;;;;;;;4.64;74.44;94559.37;1769394;80;21496;-48
2020/12/23 02:02:46;;;;;;;4.90;4.50;;;;;;;4.67;74.47;94547.67;1759049;80;21095;-49
2020/12/23 02:05:15;;;;;;;4.85;4.45;;;;;;;4.69;74.47;94548.03;1732947;80;21351;-48
2020/12/23 02:07:43;;;;;;;13.45;11.55;;;;;;;4.71;74.49;94547.02;1756741;80;21132;-48
2020/12/23 02:10:12;;;;;;;17.57;15.63;;;;;;;4.76;74.55;94550.63;1769791;80;21140;-48
2020/12/23 02:12:41;;;;;;;13.20;11.70;;;;;;;4.76;74.51;94553.34;1763076;80;21659;-49
2020/12/23 02:15:13;;;;;;;9.05;7.53;;;;;;;4.78;74.41;94555.67;1761126;80;21236;-48
2020/12/23 02:17:42;;;;;;;5.47;4.97;;;;;;;4.76;74.26;94550.63;1752385;80;22377;-49
2020/12/23 02:20:12;;;;;;;4.50;4.20;;;;;;;4.75;74.08;94547.72;1752441;80;21214;-49
2020/12/23 02:22:41;;;;;;;4.08;3.87;;;;;;;4.78;73.92;94555.67;1770764;80;21162;-49
2020/12/23 02:25:10;;;;;;;4.45;4.03;;;;;;;4.78;73.73;94544.77;1750383;80;21052;-51
2020/12/23 02:27:38;;;;;;;5.83;5.40;;;;;;;4.82;73.41;94548.95;1748729;80;21202;-49
2020/12/23 02:30:08;;;;;;;7.75;6.05;;;;;;;4.84;73.70;94547.19;1770720;80;21210;-49
2020/12/23 02:32:36;;;;;;;4.75;4.45;;;;;;;4.86;73.52;94546.97;1756265;80;21196;-49
2020/12/23 02:35:09;;;;;;;5.00;4.50;;;;;;;4.88;73.12;94547.31;1753529;80;21176;-50
2020/12/23 02:37:37;;;;;;;4.65;4.35;;;;;;;4.91;72.85;94543.76;1746931;80;21071;-49
2020/12/23 02:40:06;;;;;;;5.25;4.83;;;;;;;4.92;72.73;94544.52;1760833;80;21059;-49
2020/12/23 02:42:34;;;;;;;5.50;5.00;;;;;;;4.93;72.88;94548.20;1764290;80;21384;-48
2020/12/23 02:45:03;;;;;;;6.35;5.58;;;;;;;4.92;72.94;94547.23;1773302;80;21144;-49
2020/12/23 02:47:31;;;;;;;5.30;4.87;;;;;;;4.91;72.92;94547.84;1775322;80;21159;-50
2020/12/23 02:50:00;;;;;;;6.30;5.20;;;;;;;4.90;72.79;94538.71;1758098;80;21262;-49
2020/12/23 02:52:28;;;;;;;4.72;4.40;;;;;;;4.90;72.80;94537.34;1750053;80;21049;-49
2020/12/23 02:54:58;;;;;;;6.45;5.47;;;;;;;4.91;72.89;94545.70;1767144;80;21084;-49
2020/12/23 02:57:27;;;;;;;8.30;6.58;;;;;;;4.91;73.01;94550.57;1756257;80;21537;-49
2020/12/23 02:59:55;;;;;;;5.20;4.80;;;;;;;4.90;73.07;94546.30;1754616;80;21088;-49
2020/12/23 03:02:24;;;;;;;5.12;4.72;;;;;;;4.90;72.99;94547.67;1759563;80;21107;-49
2020/12/23 03:04:53;;;;;;;4.72;4.33;;;;;;;4.89;73.04;94557.61;1750204;80;21129;-51
2020/12/23 03:07:22;;;;;;;4.75;4.45;;;;;;;4.87;73.06;94559.41;1748551;80;21356;-49
2020/12/23 03:09:51;;;;;;;8.08;7.28;;;;;;;4.89;73.27;94557.03;1753126;81;21627;-51
2020/12/23 03:12:19;;;;;;;16.15;12.10;;;;;;;4.90;73.20;94558.57;1759817;80;21088;-48
2020/12/23 03:14:48;;;;;;;7.42;6.72;;;;;;;4.89;73.23;94562.48;1752068;80;21075;-50
2020/12/23 03:17:16;;;;;;;5.53;5.12;;;;;;;4.87;73.16;94563.49;1751870;80;21071;-54
2020/12/23 03:19:47;;;;;;;5.70;5.20;;;;;;;4.87;73.08;94556.68;1768023;80;21116;-49
2020/12/23 03:22:15;;;;;;;6.40;5.80;;;;;;;4.86;73.05;94560.59;1753664;80;21483;-49
2020/12/23 03:24:44;;;;;;;5.15;4.75;;;;;;;4.82;73.02;94557.13;1753785;80;21135;-49
2020/12/23 03:27:12;;;;;;;5.15;4.72;;;;;;;4.81;73.09;94561.05;1765994;80;21478;-50
2020/12/23 03:29:43;;;;;;;5.97;5.47;;;;;;;4.78;73.06;94557.79;1749929;80;21218;-51
2020/12/23 03:32:11;;;;;;;5.72;5.12;;;;;;;4.76;72.98;94552.59;1759985;80;21360;-51
2020/12/23 03:34:40;;;;;;;5.70;5.17;;;;;;;4.72;73.06;94551.28;1773009;80;21182;-50
2020/12/23 03:37:08;;;;;;;5.72;5.22;;;;;;;4.69;73.09;94551.33;1771281;80;21103;-50
2020/12/23 03:39:37;;;;;;;5.37;4.97;;;;;;;4.66;73.16;94554.31;1759358;80;21088;-50
2020/12/23 03:42:05;;;;;;;6.37;5.85;;;;;;;4.61;73.22;94546.59;1771508;80;21560;-50
2020/12/23 03:44:33;;;;;;;5.80;5.30;;;;;;;4.60;73.31;94553.83;1756225;80;21379;-49
2020/12/23 03:47:01;;;;;;;6.60;6.00;;;;;;;4.61;73.37;94550.67;1757550;80;21639;-49
2020/12/23 03:49:30;;;;;;;6.47;5.90;;;;;;;4.61;73.39;94543.11;1753297;80;21065;-49
2020/12/23 03:51:58;;;;;;;6.42;5.92;;;;;;;4.61;73.23;94558.84;1756704;80;21053;-48
2020/12/23 03:54:26;;;;;;;5.72;5.22;;;;;;;4.60;73.20;94559.27;1761510;80;21063;-50
2020/12/23 03:56:55;;;;;;;5.62;5.17;;;;;;;4.62;73.14;94562.35;1753604;80;21425;-50
2020/12/23 03:59:23;;;;;;;7.53;6.92;;;;;;;4.62;72.92;94563.72;1774749;80;21508;-49
2020/12/23 04:01:52;;;;;;;9.80;8.90;;;;;;;4.65;72.88;94567.75;1752339;80;21503;-50
2020/12/23 04:04:21;;;;;;;10.28;9.05;;;;;;;4.66;72.92;94573.38;1756321;80;21127;-49
2020/12/23 04:06:49;;;;;;;15.60;13.95;;;;;;;4.67;72.90;94582.31;1765881;80;21087;-49
2020/12/23 04:09:18;;;;;;;12.03;10.68;;;;;;;4.68;72.88;94589.30;1775753;80;21368;-49
2020/12/23 04:11:46;;;;;;;20.08;17.45;;;;;;;4.66;72.80;94576.10;1755171;80;21143;-49
2020/12/23 04:14:14;;;;;;;15.70;13.60;;;;;;;4.65;72.82;94581.37;1770539;80;21116;-50
2020/12/23 04:16:43;;;;;;;18.32;14.33;;;;;;;4.63;72.81;94590.52;1760860;80;21139;-51
2020/12/23 04:19:11;;;;;;;12.93;11.63;;;;;;;4.58;72.93;94586.91;1771288;80;21135;-49
2020/12/23 04:21:40;;;;;;;10.43;9.40;;;;;;;4.56;73.11;94598.81;1756849;80;21374;-50
2020/12/23 04:24:08;;;;;;;30.72;21.17;;;;;;;4.56;73.19;94598.81;1760712;80;21020;-49
2020/12/23 04:26:37;;;;;;;14.87;13.08;;;;;;;4.59;73.14;94596.63;1752771;80;21079;-49
2020/12/23 04:29:06;;;;;;;37.17;20.43;;;;;;;4.65;73.13;94591.48;1755139;80;21116;-50
2020/12/23 04:31:34;;;;;;;21.05;12.58;;;;;;;4.66;72.95;94587.00;1758212;80;21290;-49
2020/12/23 04:34:02;;;;;;;8.85;7.95;;;;;;;4.63;72.79;94591.89;1755750;80;21381;-49
2020/12/23 04:36:31;;;;;;;9.98;8.63;;;;;;;4.59;72.61;94591.17;1752304;80;21609;-49
2020/12/23 04:38:59;;;;;;;9.70;8.15;;;;;;;4.61;72.58;94596.98;1772930;80;21127;-49
2020/12/23 04:41:28;;;;;;;10.95;9.95;;;;;;;4.64;72.49;94590.70;1762701;80;21509;-49
2020/12/23 04:43:56;;;;;;;11.68;10.53;;;;;;;4.68;72.44;94600.19;1773307;80;21072;-48
2020/12/23 04:46:25;;;;;;;20.50;15.60;;;;;;;4.69;72.46;94597.06;1757759;80;21458;-49
2020/12/23 04:48:59;;;;;;;18.70;14.15;;;;;;;4.72;72.43;94593.52;1758173;80;21127;-50
2020/12/23 04:51:32;;;;;;;11.53;9.35;;;;;;;4.76;72.38;94601.64;1779774;80;21131;-48
2020/12/23 04:54:01;;;;;;;10.78;8.35;;;;;;;4.81;72.26;94599.19;1755514;80;21065;-50
2020/12/23 04:56:32;;;;;;;12.35;8.95;;;;;;;4.84;72.20;94603.06;1746313;80;21257;-49
2020/12/23 04:59:01;;;;;;;13.03;9.05;;;;;;;4.88;72.17;94590.92;1762731;80;21339;-49
2020/12/23 05:01:29;;;;;;;15.03;10.65;;;;;;;4.96;72.04;94592.34;1753923;80;21107;-50
2020/12/23 05:03:57;;;;;;;13.80;11.18;;;;;;;5.04;71.94;94591.05;1754991;80;21185;-52
2020/12/23 05:06:26;;;;;;;11.90;10.58;;;;;;;5.08;71.92;94583.57;1749933;80;21073;-50
2020/12/23 05:08:55;;;;;;;21.23;14.43;;;;;;;5.12;71.72;94578.82;1779551;80;21140;-49
2020/12/23 05:11:24;;;;;;;19.67;11.80;;;;;;;5.16;71.56;94574.06;1768648;80;21271;-50
2020/12/23 05:13:53;;;;;;;20.02;12.35;;;;;;;5.20;71.29;94565.84;1754682;80;21155;-50
2020/12/23 05:16:24;;;;;;;17.25;12.28;;;;;;;5.25;71.01;94568.86;1779777;80;21182;-50
2020/12/23 05:18:57;;;;;;;13.25;10.03;;;;;;;5.29;70.81;94575.80;1755921;80;21084;-50
2020/12/23 05:21:26;;;;;;;13.43;8.40;;;;;;;5.35;70.59;94582.87;1750928;81;21520;-53
2020/12/23 05:23:56;;;;;;;13.43;10.10;;;;;;;5.41;70.55;94582.59;1766320;80;21266;-52
2020/12/23 05:26:26;;;;;;;16.57;14.90;;;;;;;5.47;70.37;94584.42;1762652;80;21186;-52
2020/12/23 05:28:54;;;;;;;13.40;11.48;;;;;;;5.54;70.15;94586.22;1765235;80;21155;-53
2020/12/23 05:31:24;;;;;;;16.48;14.10;;;;;;;5.56;69.81;94590.08;1772475;80;21127;-52
2020/12/23 05:33:52;;;;;;;20.82;17.25;;;;;;;5.50;69.79;94590.98;1771705;80;21208;-51
2020/12/23 05:36:23;;;;;;;32.73;21.48;;;;;;;5.46;70.00;94591.65;1767522;80;22233;-50
2020/12/23 05:38:51;;;;;;;19.30;15.43;;;;;;;5.46;70.12;94590.28;1760308;80;21164;-49
2020/12/23 05:41:19;;;;;;;19.37;13.20;;;;;;;5.50;70.14;94596.44;1743177;80;21123;-49
2020/12/23 05:43:48;;;;;;;22.77;15.30;;;;;;;5.50;70.16;94589.62;1757483;80;21095;-51
2020/12/23 05:46:17;;;;;;;88.10;73.57;;;;;;;5.50;70.31;94592.34;1775381;80;21084;-50
2020/12/23 05:48:45;;;;;;;27.62;22.90;;;;;;;5.56;70.24;94597.48;1774523;80;21375;-51
2020/12/23 05:51:13;;;;;;;18.75;16.82;;;;;;;5.62;70.11;94591.73;1769681;80;21201;-50
2020/12/23 05:53:41;;;;;;;20.97;17.52;;;;;;;5.69;69.90;94605.23;1762411;80;21246;-51
2020/12/23 05:56:11;;;;;;;13.45;9.35;;;;;;;5.73;69.63;94608.08;1746456;81;21172;-51
2020/12/23 05:58:40;;;;;;;11.05;9.35;;;;;;;5.77;69.40;94605.29;1754201;80;21658;-51
2020/12/23 06:01:09;;;;;;;17.10;13.45;;;;;;;5.73;69.16;94606.72;1753296;80;22260;-51
2020/12/23 06:03:57;;;;;;;17.42;12.73;;;;;;;5.68;69.30;94594.14;1759759;80;21860;-50
2020/12/23 06:06:27;;;;;;;14.53;11.57;;;;;;;5.65;69.32;94597.72;1747204;80;21543;-51
2020/12/23 06:08:58;;;;;;;30.43;23.75;;;;;;;5.60;69.37;94598.20;1767962;80;22139;-50
2020/12/23 06:11:32;;;;;;;32.63;27.13;;;;;;;5.56;69.63;94592.81;1779715;80;21187;-50
2020/12/23 06:14:13;;;;;;;27.32;17.48;;;;;;;5.62;69.77;94605.37;1746237;82;21214;-50
2020/12/23 06:16:48;;;;;;;15.88;11.40;;;;;;;5.69;69.58;94612.84;1737470;81;21214;-51
2020/12/23 06:19:26;;;;;;;15.05;12.30;;;;;;;5.67;69.33;94615.80;1716251;82;21551;-53
2020/12/23 06:21:58;;;;;;;19.85;13.32;;;;;;;5.58;69.34;94615.59;1721418;82;21195;-49
2020/12/23 06:24:26;;;;;;;26.00;18.98;;;;;;;5.54;69.43;94621.69;1715268;82;21152;-53
2020/12/23 06:26:56;;;;;;;21.00;16.07;;;;;;;5.56;69.47;94620.09;1758576;80;22094;-51
2020/12/23 06:29:27;;;;;;;29.90;21.87;;;;;;;5.58;69.53;94629.23;1727989;81;21198;-52
2020/12/23 06:32:03;;;;;;;27.25;23.02;;;;;;;5.62;69.56;94630.69;1731401;81;21195;-50
2020/12/23 06:34:40;;;;;;;20.20;16.30;;;;;;;5.67;69.56;94619.31;1726674;81;21174;-52
2020/12/23 06:37:30;;;;;;;14.93;12.10;;;;;;;5.71;69.48;94620.59;1720968;81;21069;-51
2020/12/23 06:39:59;;;;;;;27.90;19.07;;;;;;;5.72;69.25;94611.22;1723801;81;22246;-50
2020/12/23 06:42:29;;;;;;;42.03;25.77;;;;;;;5.71;69.29;94609.67;1732438;81;21199;-51
2020/12/23 06:45:04;;;;;;;35.10;21.40;;;;;;;5.69;69.28;94612.84;1722697;82;21084;-49
2020/12/23 06:47:33;;;;;;;28.38;16.97;;;;;;;5.72;69.31;94613.95;1726180;81;21558;-52
2020/12/23 06:50:29;;;;;;;42.27;25.25;;;;;;;5.73;69.29;94622.30;1738465;81;21679;-49
2020/12/23 06:53:00;;;;;;;29.37;17.67;;;;;;;5.74;69.19;94621.11;1740711;82;21438;-49
2020/12/23 06:55:45;;;;;;;23.98;16.80;;;;;;;5.69;69.32;94620.24;1723475;82;21195;-52
2020/12/23 06:58:42;;;;;;;25.57;17.40;;;;;;;5.73;69.37;94612.75;1716636;82;21211;-52
2020/12/23 07:01:18;;;;;;;23.47;15.80;;;;;;;5.84;69.29;94604.59;1720430;82;21136;-50
2020/12/23 07:03:47;;;;;;;15.93;12.37;;;;;;;5.94;69.05;94611.03;1732418;80;21198;-50
2020/12/23 07:06:31;;;;;;;14.38;11.75;;;;;;;5.94;68.97;94608.30;1769078;80;22104;-50
2020/12/23 07:09:04;;;;;;;13.15;10.68;;;;;;;5.94;69.05;94608.30;1762402;80;21266;-54
2020/12/23 07:11:36;;;;;;;11.57;10.40;;;;;;;5.92;69.06;94602.46;1724588;80;21212;-50
2020/12/23 07:14:12;;;;;;;22.73;15.55;;;;;;;5.90;69.15;94608.36;1760810;80;21224;-52
2020/12/23 07:16:53;;;;;;;18.50;13.75;;;;;;;5.89;69.25;94606.03;1734600;80;21130;-54
2020/12/23 07:19:23;;;;;;;18.02;13.38;;;;;;;5.89;69.45;94621.83;1758332;80;21193;-56
2020/12/23 07:22:15;;;;;;;18.92;13.35;;;;;;;5.91;69.68;94629.01;1764854;80;21257;-53
2020/12/23 07:25:01;;;;;;;12.68;11.12;;;;;;;5.97;69.54;94633.39;1736367;81;21162;-53
2020/12/23 07:27:30;;;;;;;16.25;11.97;;;;;;;6.06;69.28;94636.31;1754958;80;21138;-51
2020/12/23 07:30:08;;;;;;;12.33;10.75;;;;;;;6.11;69.03;94641.27;1765218;80;21084;-52
2020/12/23 07:32:36;;;;;;;12.35;10.08;;;;;;;6.13;68.92;94641.65;1758340;80;21146;-52
2020/12/23 07:35:05;;;;;;;11.60;9.90;;;;;;;6.11;68.82;94639.33;1759912;80;21167;-55
2020/12/23 07:37:40;;;;;;;9.73;8.73;;;;;;;6.15;68.78;94631.83;1727111;81;21728;-50
2020/12/23 07:40:15;;;;;;;8.53;7.58;;;;;;;6.21;68.62;94625.28;1757763;80;21693;-52
2020/12/23 07:42:50;;;;;;;9.18;8.28;;;;;;;6.23;68.47;94626.99;1761448;80;21579;-52
2020/12/23 07:45:19;;;;;;;11.33;9.95;;;;;;;6.17;68.46;94625.34;1739536;80;21191;-52
2020/12/23 07:48:05;;;;;;;11.12;9.93;;;;;;;6.16;68.55;94629.88;1749746;80;21663;-53
2020/12/23 07:50:39;;;;;;;15.58;13.65;;;;;;;6.15;68.59;94622.27;1762768;80;21163;-51
2020/12/23 07:53:29;;;;;;;19.70;14.83;;;;;;;6.12;68.70;94634.66;1721806;81;21234;-52
2020/12/23 07:56:02;;;;;;;14.40;12.90;;;;;;;6.16;68.79;94643.53;1747940;80;21159;-51
2020/12/23 07:58:31;;;;;;;14.03;11.83;;;;;;;6.23;68.72;94646.11;1763493;81;22329;-55
2020/12/23 08:00:59;;;;;;;11.65;10.28;;;;;;;6.29;68.51;94647.14;1736878;80;21198;-51
2020/12/23 08:03:31;;;;;;;15.55;14.00;;;;;;;6.32;68.39;94655.89;1758136;80;21747;-51
2020/12/23 08:06:07;;;;;;;15.80;14.30;;;;;;;6.33;68.31;94641.03;1736229;81;21142;-52
2020/12/23 08:08:41;;;;;;;19.37;16.32;;;;;;;6.38;68.33;94652.83;1725917;80;21172;-51
2020/12/23 08:11:15;;;;;;;20.65;16.05;;;;;;;6.45;67.96;94652.08;1756011;80;22238;-51
2020/12/23 08:13:45;;;;;;;23.75;17.40;;;;;;;6.50;67.73;94652.19;1764629;80;21210;-51
2020/12/23 08:16:16;;;;;;;13.53;10.58;;;;;;;6.48;67.64;94656.70;1710992;81;21292;-50
2020/12/23 08:18:46;;;;;;;15.72;13.03;;;;;;;6.50;67.42;94660.38;1763992;80;21304;-50
2020/12/23 08:21:19;;;;;;;29.98;15.80;;;;;;;6.49;67.35;94664.31;1745912;80;21580;-52
2020/12/23 08:23:52;;;;;;;25.32;16.32;;;;;;;6.54;67.45;94670.02;1746506;80;21213;-52
2020/12/23 08:26:20;;;;;;;13.53;11.28;;;;;;;6.66;67.16;94677.58;1744344;80;21187;-50
2020/12/23 08:28:48;;;;;;;16.77;12.25;;;;;;;6.74;66.83;94676.84;1757149;80;21202;-53
2020/12/23 08:31:22;;;;;;;14.93;10.08;;;;;;;6.72;66.93;94671.78;1747150;80;21630;-54
2020/12/23 08:33:50;;;;;;;20.57;15.90;;;;;;;6.76;66.68;94671.72;1754156;80;21206;-53
2020/12/23 08:36:20;;;;;;;18.37;15.50;;;;;;;6.80;66.90;94669.66;1759436;80;21239;-50
2020/12/23 08:38:49;;;;;;;18.85;13.38;;;;;;;6.93;66.74;94657.66;1761603;80;21095;-51
2020/12/23 08:41:18;;;;;;;19.35;13.95;;;;;;;7.08;66.46;94647.15;1753576;80;21203;-52
2020/12/23 08:43:49;;;;;;;19.10;13.13;;;;;;;7.20;66.21;94638.44;1758877;80;21175;-52
2020/12/23 08:46:27;;;;;;;16.90;13.43;;;;;;;7.28;66.10;94637.06;1736064;81;21273;-51
2020/12/23 08:48:56;;;;;;;17.85;14.07;;;;;;;7.39;65.92;94630.73;1759150;80;21405;-53
2020/12/23 08:51:25;;;;;;;18.12;12.93;;;;;;;7.55;65.80;94637.53;1725368;80;21202;-52
2020/12/23 08:53:54;;;;;;;21.75;15.50;;;;;;;7.70;65.50;94631.86;1752014;80;21167;-51
2020/12/23 08:56:33;;;;;;;19.40;13.68;;;;;;;7.83;64.77;94629.17;1767680;80;21151;-51
2020/12/23 08:59:05;;;;;;;20.43;14.98;;;;;;;7.91;64.42;94632.66;1769557;80;21576;-52
2020/12/23 09:01:36;;;;;;;13.05;11.20;;;;;;;7.97;64.18;94626.06;1766514;80;21444;-54
2020/12/23 09:04:12;;;;;;;11.88;9.63;;;;;;;7.95;63.94;94622.41;1745012;80;21222;-56
2020/12/23 09:06:44;;;;;;;13.08;10.58;;;;;;;7.91;63.96;94628.55;1746156;80;21195;-55
2020/12/23 09:09:22;;;;;;;15.93;10.77;;;;;;;7.88;64.05;94617.72;1746109;80;21226;-52
2020/12/23 09:11:55;;;;;;;17.15;11.57;;;;;;;7.85;64.13;94616.59;1756060;80;21148;-52
2020/12/23 09:14:34;;;;;;;14.70;11.97;;;;;;;7.90;64.16;94620.78;1753485;80;21360;-55
2020/12/23 09:17:17;;;;;;;13.90;10.35;;;;;;;7.92;64.11;94626.59;1754296;80;21174;-53
2020/12/23 09:19:53;;;;;;;;;;;;;;;7.93;63.96;94621.28;1766807;80;21168;-52
2020/12/23 09:22:35;;;;;;;19.95;12.65;;;;;;;7.92;64.05;94612.28;1750532;80;20253;-56
2020/12/23 09:25:27;;;;;;;18.95;12.95;;;;;;;7.92;64.21;94620.50;1768147;80;22250;-52
2020/12/23 09:28:09;;;;;;;14.87;10.68;;;;;;;7.95;64.22;94618.88;1767783;80;21373;-54
2020/12/23 09:31:00;;;;;;;13.53;9.63;;;;;;;7.99;64.08;94614.06;1749393;81;21239;-49
2020/12/23 09:33:38;;;;;;;18.15;11.08;;;;;;;7.93;64.03;94600.16;1697688;84;21165;-50
2020/12/23 09:36:07;;;;;;;15.08;10.25;;;;;;;7.98;64.04;94602.94;1753974;80;21230;-51
2020/12/23 09:38:36;;;;;;;12.25;9.90;;;;;;;8.00;64.11;94593.10;1765688;80;21178;-50
2020/12/23 09:41:05;;;;;;;14.70;10.80;;;;;;;8.00;63.92;94583.52;1771010;80;21400;-49
2020/12/23 09:43:35;;;;;;;13.62;10.23;;;;;;;7.96;64.06;94588.33;1757791;80;21183;-50
2020/12/23 09:46:08;;;;;;;15.23;10.72;;;;;;;7.95;63.91;94584.05;1766177;80;21659;-52
2020/12/23 09:48:36;;;;;;;17.83;11.20;;;;;;;7.97;63.96;94576.17;1752298;80;21197;-50
2020/12/23 09:51:06;;;;;;;15.83;11.50;;;;;;;7.97;63.83;94579.49;1724227;80;21136;-52
2020/12/23 09:53:35;;;;;;;18.73;12.85;;;;;;;7.97;63.85;94576.17;1726319;82;21355;-50
2020/12/23 09:56:06;;;;;;;18.32;13.18;;;;;;;8.01;64.04;94578.20;1737102;82;21248;-50
2020/12/23 09:58:35;;;;;;;15.08;10.58;;;;;;;8.04;64.03;94581.44;1754651;80;21230;-50
2020/12/23 10:01:04;;;;;;;16.93;12.63;;;;;;;8.07;64.01;94565.50;1749530;80;21197;-51
2020/12/23 10:03:35;;;;;;;19.17;12.13;;;;;;;7.99;64.21;94568.28;1727752;81;21132;-52
2020/12/23 10:06:04;;;;;;;18.62;11.95;;;;;;;7.97;64.27;94559.73;1752813;80;22074;-49
2020/12/23 10:08:32;;;;;;;12.88;10.13;;;;;;;7.95;64.37;94548.45;1762334;80;21257;-50
2020/12/23 10:11:01;;;;;;;13.50;9.73;;;;;;;7.93;64.43;94561.81;1768175;80;21644;-52
2020/12/23 10:13:30;;;;;;;10.13;8.58;;;;;;;7.92;64.59;94569.08;1755485;80;21146;-52
2020/12/23 10:15:58;;;;;;;16.90;10.75;;;;;;;7.95;64.54;94563.52;1752644;80;21203;-53
2020/12/23 10:18:27;;;;;;;15.88;11.05;;;;;;;7.97;64.54;94561.11;1758464;80;21400;-49
2020/12/23 10:20:55;;;;;;;14.18;10.38;;;;;;;8.04;64.48;94552.67;1735778;80;21676;-51
2020/12/23 10:23:24;;;;;;;17.90;11.88;;;;;;;8.01;64.36;94552.77;1744821;80;21825;-53
2020/12/23 10:25:53;;;;;;;18.75;12.25;;;;;;;8.01;64.41;94552.18;1746136;80;21208;-51
2020/12/23 10:28:22;;;;;;;16.10;11.15;;;;;;;8.04;64.29;94547.81;1733861;80;21298;-49
2020/12/23 10:30:51;;;;;;;18.75;12.93;;;;;;;7.99;64.48;94531.30;1734322;82;21442;-51
2020/12/23 10:33:19;;;;;;;21.62;15.40;;;;;;;7.99;64.51;94536.00;1725493;80;21194;-49
2020/12/23 10:35:47;;;;;;;27.32;18.37;;;;;;;8.00;64.49;94530.69;1730435;80;21234;-52
2020/12/23 10:38:16;;;;;;;21.20;13.83;;;;;;;8.00;64.60;94524.62;1756675;80;21213;-54
2020/12/23 10:40:44;;;;;;;16.75;13.20;;;;;;;8.01;64.40;94516.56;1760254;80;21187;-49
2020/12/23 10:43:13;;;;;;;15.03;11.35;;;;;;;8.04;64.32;94523.91;1733441;81;21949;-53
2020/12/23 10:45:42;;;;;;;13.00;10.15;;;;;;;8.06;64.23;94520.13;1752137;80;21226;-54
2020/12/23 10:48:11;;;;;;;15.23;11.73;;;;;;;8.10;64.26;94520.78;1741306;80;21551;-49
2020/12/23 10:50:39;;;;;;;23.10;14.53;;;;;;;8.12;64.50;94519.77;1750305;80;21174;-49
2020/12/23 10:53:08;;;;;;;18.02;14.13;;;;;;;8.12;64.89;94509.41;1763096;79;21684;-52
2020/12/23 10:55:37;;;;;;;16.23;12.88;;;;;;;8.07;65.10;94510.70;1757020;80;23541;-53
2020/12/23 10:58:05;;;;;;;20.05;13.78;;;;;;;8.05;65.49;94498.67;1773887;80;21939;-51
2020/12/23 11:00:35;;;;;;;17.60;12.30;;;;;;;8.03;65.79;94498.34;1774043;80;21558;-50
2020/12/23 11:03:04;;;;;;;17.25;12.25;;;;;;;7.98;65.94;94502.97;1766064;80;21140;-51
2020/12/23 11:05:33;;;;;;;32.88;19.57;;;;;;;7.92;66.24;94493.15;1760180;80;21473;-50
2020/12/23 11:08:02;;;;;;;45.78;23.98;;;;;;;7.91;66.39;94485.38;1756003;80;21362;-51
2020/12/23 11:10:31;;;;;;;46.13;25.10;;;;;;;7.91;66.41;94484.77;1747981;80;21510;-53
2020/12/23 11:12:59;;;;;;;44.23;25.30;;;;;;;7.95;66.49;94487.41;1757900;80;21234;-52
2020/12/23 11:15:27;;;;;;;50.10;24.45;;;;;;;7.95;66.62;94489.56;1754289;80;21138;-48
2020/12/23 11:17:57;;;;;;;70.92;31.55;;;;;;;7.94;66.65;94476.30;1754799;80;21610;-51
2020/12/23 11:20:26;;;;;;;65.32;29.87;;;;;;;7.86;66.82;94479.09;1742390;81;21390;-53
2020/12/23 11:22:58;;;;;;;56.30;25.02;;;;;;;7.79;67.20;94477.31;1721481;81;21618;-54
2020/12/23 11:25:27;;;;;;;41.70;22.77;;;;;;;7.72;67.65;94482.98;1730884;81;21503;-54
2020/12/23 11:27:56;;;;;;;35.05;18.82;;;;;;;7.62;67.98;94473.12;1744593;80;21661;-52
2020/12/23 11:30:25;;;;;;;37.03;19.95;;;;;;;7.58;68.17;94471.09;1745336;80;21131;-55
2020/12/23 11:32:54;;;;;;;33.90;18.32;;;;;;;7.54;68.37;94464.92;1736379;81;21614;-51
2020/12/23 11:35:24;;;;;;;40.30;20.15;;;;;;;7.56;68.61;94461.15;1761545;80;21207;-53
2020/12/23 11:37:53;;;;;;;36.33;18.23;;;;;;;7.60;68.74;94463.80;1755539;80;21127;-51
2020/12/23 11:40:23;;;;;;;39.83;19.52;;;;;;;7.72;68.69;94462.45;1758294;80;21143;-51
2020/12/23 11:42:52;;;;;;;28.80;18.82;;;;;;;7.78;68.61;94457.98;1759801;80;21119;-50
2020/12/23 11:45:21;;;;;;;20.95;16.25;;;;;;;7.82;68.55;94457.27;1765421;80;21375;-52